sensor_id;sensor_type;location;lat;lon;timestamp;P1;durP1;ratioP1;P2;durP2;ratioP2
14789;SDS011;7486;51.010;10.366;2022-09-11T00:01:37;2.60;;;2.40;;
14789;SDS011;7486;51.010;10.366;2022-09-11T00:04:04;4.05;;;2.65;;
14789;SDS011;7486;51.010;10.366;2022-09-11T00:06:31;3.40;;;2.50;;
14789;SDS011;7486;51.010;10.366;2022-09-11T00:08:58;2.50;;;2.30;;
14789;SDS011;7486;51.010;10.366;2022-09-11T00:11:28;1.92;;;1.83;;
14789;SDS011;7486;51.010;10.366;2022-09-11T00:13:59;2.50;;;2.30;;
14789;SDS011;7486;51.010;10.366;2022-09-11T00:16:31;3.95;;;2.60;;
14789;SDS011;7486;51.010;10.366;2022-09-11T00:19:04;2.47;;;2.22;;
14789;SDS011;7486;51.010;10.366;2022-09-11T00:21:32;2.42;;;2.22;;
14789;SDS011;7486;51.010;10.366;2022-09-11T00:23:59;3.17;;;2.55;;
14789;SDS011;7486;51.010;10.366;2022-09-11T00:26:26;2.78;;;2.30;;
14789;SDS011;7486;51.010;10.366;2022-09-11T00:28:53;2.70;;;2.50;;
14789;SDS011;7486;51.010;10.366;2022-09-11T00:31:21;2.28;;;2.17;;
14789;SDS011;7486;51.010;10.366;2022-09-11T00:33:52;4.13;;;2.30;;
14789;SDS011;7486;51.010;10.366;2022-09-11T00:36:20;3.92;;;2.20;;
14789;SDS011;7486;51.010;10.366;2022-09-11T00:38:49;2.80;;;2.60;;
14789;SDS011;7486;51.010;10.366;2022-09-11T00:41:22;3.03;;;2.60;;
14789;SDS011;7486;51.010;10.366;2022-09-11T00:49:18;2.85;;;2.65;;
14789;SDS011;7486;51.010;10.366;2022-09-11T00:52:18;3.75;;;2.55;;
14789;SDS011;7486;51.010;10.366;2022-09-11T00:54:59;4.22;;;3.25;;
14789;SDS011;7486;51.010;10.366;2022-09-11T00:57:31;2.92;;;2.72;;
14789;SDS011;7486;51.010;10.366;2022-09-11T01:00:01;3.95;;;2.83;;
14789;SDS011;7486;51.010;10.366;2022-09-11T01:02:30;3.47;;;3.13;;
14789;SDS011;7486;51.010;10.366;2022-09-11T01:05:01;3.75;;;3.35;;
14789;SDS011;7486;51.010;10.366;2022-09-11T01:07:29;4.28;;;3.88;;
14789;SDS011;7486;51.010;10.366;2022-09-11T01:09:57;3.85;;;3.38;;
14789;SDS011;7486;51.010;10.366;2022-09-11T01:12:32;4.18;;;3.55;;
14789;SDS011;7486;51.010;10.366;2022-09-11T01:18:02;3.92;;;3.50;;
14789;SDS011;7486;51.010;10.366;2022-09-11T01:24:00;3.83;;;3.53;;
14789;SDS011;7486;51.010;10.366;2022-09-11T01:29:19;4.60;;;4.20;;
14789;SDS011;7486;51.010;10.366;2022-09-11T01:37:21;5.13;;;4.63;;
14789;SDS011;7486;51.010;10.366;2022-09-11T01:39:55;5.45;;;4.95;;
14789;SDS011;7486;51.010;10.366;2022-09-11T01:42:30;5.82;;;5.32;;
14789;SDS011;7486;51.010;10.366;2022-09-11T01:45:02;6.55;;;5.95;;
14789;SDS011;7486;51.010;10.366;2022-09-11T01:47:31;8.52;;;7.30;;
14789;SDS011;7486;51.010;10.366;2022-09-11T01:50:07;7.57;;;6.88;;
14789;SDS011;7486;51.010;10.366;2022-09-11T01:52:56;8.48;;;7.68;;
14789;SDS011;7486;51.010;10.366;2022-09-11T01:55:29;8.25;;;7.47;;
14789;SDS011;7486;51.010;10.366;2022-09-11T01:58:05;9.30;;;8.40;;
14789;SDS011;7486;51.010;10.366;2022-09-11T02:00:38;8.65;;;7.78;;
14789;SDS011;7486;51.010;10.366;2022-09-11T02:03:20;8.38;;;7.57;;
14789;SDS011;7486;51.010;10.366;2022-09-11T02:05:49;8.63;;;7.72;;
14789;SDS011;7486;51.010;10.366;2022-09-11T02:08:25;8.48;;;7.68;;
14789;SDS011;7486;51.010;10.366;2022-09-11T02:11:04;8.43;;;7.63;;
14789;SDS011;7486;51.010;10.366;2022-09-11T02:13:52;7.95;;;7.15;;
14789;SDS011;7486;51.010;10.366;2022-09-11T02:16:38;7.22;;;6.53;;
14789;SDS011;7486;51.010;10.366;2022-09-11T02:19:08;6.47;;;5.47;;
14789;SDS011;7486;51.010;10.366;2022-09-11T02:21:37;6.80;;;6.10;;
14789;SDS011;7486;51.010;10.366;2022-09-11T02:24:06;7.00;;;6.40;;
14789;SDS011;7486;51.010;10.366;2022-09-11T02:26:36;6.32;;;5.72;;
14789;SDS011;7486;51.010;10.366;2022-09-11T02:29:07;6.65;;;6.03;;
14789;SDS011;7486;51.010;10.366;2022-09-11T02:31:34;7.03;;;6.38;;
14789;SDS011;7486;51.010;10.366;2022-09-11T02:34:01;6.65;;;6.05;;
14789;SDS011;7486;51.010;10.366;2022-09-11T02:39:23;6.00;;;5.40;;
14789;SDS011;7486;51.010;10.366;2022-09-11T02:58:39;6.32;;;5.70;;
14789;SDS011;7486;51.010;10.366;2022-09-11T03:01:11;6.80;;;6.15;;
14789;SDS011;7486;51.010;10.366;2022-09-11T03:03:40;6.40;;;5.90;;
14789;SDS011;7486;51.010;10.366;2022-09-11T03:06:12;5.60;;;5.10;;
14789;SDS011;7486;51.010;10.366;2022-09-11T03:08:44;5.60;;;5.10;;
14789;SDS011;7486;51.010;10.366;2022-09-11T03:11:11;5.88;;;5.28;;
14789;SDS011;7486;51.010;10.366;2022-09-11T03:13:38;5.30;;;4.70;;
14789;SDS011;7486;51.010;10.366;2022-09-11T03:16:06;5.38;;;4.88;;
14789;SDS011;7486;51.010;10.366;2022-09-11T03:18:33;5.50;;;5.00;;
14789;SDS011;7486;51.010;10.366;2022-09-11T03:21:00;6.55;;;5.25;;
14789;SDS011;7486;51.010;10.366;2022-09-11T03:23:27;5.82;;;5.13;;
14789;SDS011;7486;51.010;10.366;2022-09-11T03:25:53;5.57;;;5.07;;
14789;SDS011;7486;51.010;10.366;2022-09-11T03:28:21;5.93;;;5.38;;
14789;SDS011;7486;51.010;10.366;2022-09-11T03:30:49;5.38;;;4.88;;
14789;SDS011;7486;51.010;10.366;2022-09-11T03:33:16;5.70;;;5.20;;
14789;SDS011;7486;51.010;10.366;2022-09-11T03:35:42;5.93;;;5.32;;
14789;SDS011;7486;51.010;10.366;2022-09-11T03:38:10;6.00;;;5.40;;
14789;SDS011;7486;51.010;10.366;2022-09-11T03:40:38;5.85;;;5.13;;
14789;SDS011;7486;51.010;10.366;2022-09-11T03:43:07;7.28;;;5.25;;
14789;SDS011;7486;51.010;10.366;2022-09-11T03:45:34;5.05;;;4.55;;
14789;SDS011;7486;51.010;10.366;2022-09-11T03:48:01;6.05;;;5.43;;
14789;SDS011;7486;51.010;10.366;2022-09-11T03:50:27;5.55;;;5.05;;
14789;SDS011;7486;51.010;10.366;2022-09-11T03:52:54;4.82;;;4.43;;
14789;SDS011;7486;51.010;10.366;2022-09-11T03:55:21;5.45;;;4.95;;
14789;SDS011;7486;51.010;10.366;2022-09-11T03:57:48;6.75;;;5.35;;
14789;SDS011;7486;51.010;10.366;2022-09-11T04:00:15;5.65;;;5.07;;
14789;SDS011;7486;51.010;10.366;2022-09-11T04:02:52;6.07;;;5.20;;
14789;SDS011;7486;51.010;10.366;2022-09-11T04:05:29;5.45;;;4.85;;
14789;SDS011;7486;51.010;10.366;2022-09-11T04:07:58;5.55;;;4.97;;
14789;SDS011;7486;51.010;10.366;2022-09-11T04:10:26;5.93;;;5.07;;
14789;SDS011;7486;51.010;10.366;2022-09-11T04:12:55;5.40;;;4.90;;
14789;SDS011;7486;51.010;10.366;2022-09-11T04:15:21;5.57;;;5.07;;
14789;SDS011;7486;51.010;10.366;2022-09-11T04:17:48;5.82;;;5.22;;
14789;SDS011;7486;51.010;10.366;2022-09-11T04:20:15;7.82;;;5.35;;
14789;SDS011;7486;51.010;10.366;2022-09-11T04:22:44;6.10;;;5.50;;
14789;SDS011;7486;51.010;10.366;2022-09-11T04:25:11;6.25;;;5.65;;
14789;SDS011;7486;51.010;10.366;2022-09-11T04:27:38;6.05;;;5.38;;
14789;SDS011;7486;51.010;10.366;2022-09-11T04:30:08;6.57;;;5.53;;
14789;SDS011;7486;51.010;10.366;2022-09-11T04:32:35;6.20;;;5.60;;
14789;SDS011;7486;51.010;10.366;2022-09-11T04:35:02;6.85;;;6.00;;
14789;SDS011;7486;51.010;10.366;2022-09-11T04:37:34;7.20;;;6.50;;
14789;SDS011;7486;51.010;10.366;2022-09-11T04:40:01;7.25;;;6.38;;
14789;SDS011;7486;51.010;10.366;2022-09-11T04:42:29;8.30;;;7.13;;
14789;SDS011;7486;51.010;10.366;2022-09-11T04:44:56;8.20;;;6.78;;
14789;SDS011;7486;51.010;10.366;2022-09-11T04:47:23;8.90;;;8.00;;
14789;SDS011;7486;51.010;10.366;2022-09-11T04:49:50;8.52;;;7.05;;
14789;SDS011;7486;51.010;10.366;2022-09-11T04:52:16;9.07;;;8.18;;
14789;SDS011;7486;51.010;10.366;2022-09-11T04:54:43;9.63;;;8.23;;
14789;SDS011;7486;51.010;10.366;2022-09-11T04:57:10;10.60;;;9.50;;
14789;SDS011;7486;51.010;10.366;2022-09-11T04:59:37;10.27;;;9.32;;
14789;SDS011;7486;51.010;10.366;2022-09-11T05:02:09;10.38;;;9.20;;
14789;SDS011;7486;51.010;10.366;2022-09-11T05:04:38;10.60;;;9.45;;
14789;SDS011;7486;51.010;10.366;2022-09-11T05:07:05;11.80;;;10.63;;
14789;SDS011;7486;51.010;10.366;2022-09-11T05:09:33;11.55;;;10.35;;
14789;SDS011;7486;51.010;10.366;2022-09-11T05:12:00;11.10;;;10.00;;
14789;SDS011;7486;51.010;10.366;2022-09-11T05:14:30;11.07;;;9.98;;
14789;SDS011;7486;51.010;10.366;2022-09-11T05:16:57;13.52;;;10.30;;
14789;SDS011;7486;51.010;10.366;2022-09-11T05:19:26;10.80;;;9.70;;
14789;SDS011;7486;51.010;10.366;2022-09-11T05:21:53;11.18;;;10.07;;
14789;SDS011;7486;51.010;10.366;2022-09-11T05:24:21;11.48;;;9.82;;
14789;SDS011;7486;51.010;10.366;2022-09-11T05:26:50;10.43;;;9.32;;
14789;SDS011;7486;51.010;10.366;2022-09-11T05:29:17;10.75;;;9.65;;
14789;SDS011;7486;51.010;10.366;2022-09-11T05:31:53;11.23;;;9.27;;
14789;SDS011;7486;51.010;10.366;2022-09-11T05:34:20;10.43;;;9.43;;
14789;SDS011;7486;51.010;10.366;2022-09-11T05:36:48;10.15;;;9.15;;
14789;SDS011;7486;51.010;10.366;2022-09-11T05:39:16;10.35;;;9.35;;
14789;SDS011;7486;51.010;10.366;2022-09-11T05:41:48;11.50;;;9.80;;
14789;SDS011;7486;51.010;10.366;2022-09-11T05:44:26;10.35;;;9.23;;
14789;SDS011;7486;51.010;10.366;2022-09-11T05:46:54;9.88;;;8.88;;
14789;SDS011;7486;51.010;10.366;2022-09-11T05:49:22;9.20;;;8.30;;
14789;SDS011;7486;51.010;10.366;2022-09-11T05:51:49;9.52;;;8.55;;
14789;SDS011;7486;51.010;10.366;2022-09-11T05:54:16;10.05;;;8.48;;
14789;SDS011;7486;51.010;10.366;2022-09-11T05:56:44;8.85;;;7.95;;
14789;SDS011;7486;51.010;10.366;2022-09-11T05:59:18;9.77;;;8.77;;
14789;SDS011;7486;51.010;10.366;2022-09-11T06:01:47;10.45;;;9.38;;
14789;SDS011;7486;51.010;10.366;2022-09-11T06:04:20;9.68;;;8.77;;
14789;SDS011;7486;51.010;10.366;2022-09-11T06:06:49;9.43;;;8.43;;
14789;SDS011;7486;51.010;10.366;2022-09-11T06:09:17;9.43;;;8.25;;
14789;SDS011;7486;51.010;10.366;2022-09-11T06:11:44;9.55;;;8.65;;
14789;SDS011;7486;51.010;10.366;2022-09-11T06:14:10;9.02;;;7.95;;
14789;SDS011;7486;51.010;10.366;2022-09-11T06:16:38;9.27;;;8.38;;
14789;SDS011;7486;51.010;10.366;2022-09-11T06:19:09;9.98;;;8.57;;
14789;SDS011;7486;51.010;10.366;2022-09-11T06:21:36;10.25;;;9.20;;
14789;SDS011;7486;51.010;10.366;2022-09-11T06:24:09;9.10;;;8.20;;
14789;SDS011;7486;51.010;10.366;2022-09-11T06:26:37;12.23;;;9.10;;
14789;SDS011;7486;51.010;10.366;2022-09-11T06:29:03;11.13;;;9.68;;
14789;SDS011;7486;51.010;10.366;2022-09-11T06:31:34;10.50;;;9.50;;
14789;SDS011;7486;51.010;10.366;2022-09-11T06:34:00;9.95;;;9.02;;
14789;SDS011;7486;51.010;10.366;2022-09-11T06:36:27;9.93;;;8.93;;
14789;SDS011;7486;51.010;10.366;2022-09-11T06:38:56;10.80;;;9.70;;
14789;SDS011;7486;51.010;10.366;2022-09-11T06:41:26;10.88;;;9.77;;
14789;SDS011;7486;51.010;10.366;2022-09-11T06:44:01;10.40;;;9.50;;
14789;SDS011;7486;51.010;10.366;2022-09-11T06:46:29;13.07;;;10.20;;
14789;SDS011;7486;51.010;10.366;2022-09-11T06:48:58;10.85;;;9.13;;
14789;SDS011;7486;51.010;10.366;2022-09-11T06:51:26;10.65;;;9.60;;
14789;SDS011;7486;51.010;10.366;2022-09-11T06:53:55;10.15;;;9.15;;
14789;SDS011;7486;51.010;10.366;2022-09-11T06:56:25;10.18;;;9.18;;
14789;SDS011;7486;51.010;10.366;2022-09-11T06:58:52;10.45;;;9.30;;
14789;SDS011;7486;51.010;10.366;2022-09-11T07:01:22;9.90;;;8.90;;
14789;SDS011;7486;51.010;10.366;2022-09-11T07:03:54;10.48;;;7.65;;
14789;SDS011;7486;51.010;10.366;2022-09-11T07:06:23;9.65;;;8.70;;
14789;SDS011;7486;51.010;10.366;2022-09-11T07:08:54;8.77;;;7.82;;
14789;SDS011;7486;51.010;10.366;2022-09-11T07:11:23;9.40;;;8.00;;
14789;SDS011;7486;51.010;10.366;2022-09-11T07:13:50;9.07;;;8.27;;
14789;SDS011;7486;51.010;10.366;2022-09-11T07:16:17;8.45;;;7.70;;
14789;SDS011;7486;51.010;10.366;2022-09-11T07:18:50;8.68;;;7.85;;
14789;SDS011;7486;51.010;10.366;2022-09-11T07:21:21;9.15;;;7.63;;
14789;SDS011;7486;51.010;10.366;2022-09-11T07:23:56;7.80;;;7.10;;
14789;SDS011;7486;51.010;10.366;2022-09-11T07:26:26;7.78;;;6.93;;
14789;SDS011;7486;51.010;10.366;2022-09-11T07:29:00;7.75;;;6.97;;
14789;SDS011;7486;51.010;10.366;2022-09-11T07:31:29;8.38;;;7.28;;
14789;SDS011;7486;51.010;10.366;2022-09-11T07:33:57;7.97;;;7.00;;
14789;SDS011;7486;51.010;10.366;2022-09-11T07:36:25;9.20;;;7.65;;
14789;SDS011;7486;51.010;10.366;2022-09-11T07:38:53;8.70;;;7.70;;
14789;SDS011;7486;51.010;10.366;2022-09-11T07:41:23;8.55;;;7.65;;
14789;SDS011;7486;51.010;10.366;2022-09-11T07:43:56;8.32;;;7.47;;
14789;SDS011;7486;51.010;10.366;2022-09-11T07:46:27;9.40;;;8.32;;
14789;SDS011;7486;51.010;10.366;2022-09-11T07:48:53;8.98;;;8.02;;
14789;SDS011;7486;51.010;10.366;2022-09-11T07:51:20;8.50;;;7.65;;
14789;SDS011;7486;51.010;10.366;2022-09-11T07:53:48;8.02;;;7.22;;
14789;SDS011;7486;51.010;10.366;2022-09-11T07:56:19;8.15;;;7.40;;
14789;SDS011;7486;51.010;10.366;2022-09-11T07:58:48;8.00;;;6.95;;
14789;SDS011;7486;51.010;10.366;2022-09-11T08:01:19;7.43;;;6.72;;
14789;SDS011;7486;51.010;10.366;2022-09-11T08:03:54;7.70;;;6.75;;
14789;SDS011;7486;51.010;10.366;2022-09-11T08:06:24;7.65;;;6.88;;
14789;SDS011;7486;51.010;10.366;2022-09-11T08:08:53;9.50;;;6.90;;
14789;SDS011;7486;51.010;10.366;2022-09-11T08:11:25;8.02;;;7.22;;
14789;SDS011;7486;51.010;10.366;2022-09-11T08:13:53;7.00;;;6.30;;
14789;SDS011;7486;51.010;10.366;2022-09-11T08:16:24;7.22;;;6.53;;
14789;SDS011;7486;51.010;10.366;2022-09-11T08:18:55;7.13;;;6.45;;
14789;SDS011;7486;51.010;10.366;2022-09-11T08:21:23;7.43;;;6.72;;
14789;SDS011;7486;51.010;10.366;2022-09-11T08:23:50;7.28;;;6.50;;
14789;SDS011;7486;51.010;10.366;2022-09-11T08:26:21;7.28;;;6.68;;
14789;SDS011;7486;51.010;10.366;2022-09-11T08:28:53;6.30;;;5.80;;
14789;SDS011;7486;51.010;10.366;2022-09-11T08:31:23;6.15;;;5.55;;
14789;SDS011;7486;51.010;10.366;2022-09-11T08:33:54;7.75;;;6.20;;
14789;SDS011;7486;51.010;10.366;2022-09-11T08:36:21;6.45;;;5.80;;
14789;SDS011;7486;51.010;10.366;2022-09-11T08:38:50;6.82;;;6.13;;
14789;SDS011;7486;51.010;10.366;2022-09-11T08:43:53;6.78;;;6.05;;
14789;SDS011;7486;51.010;10.366;2022-09-11T08:46:21;6.65;;;6.05;;
14789;SDS011;7486;51.010;10.366;2022-09-11T08:51:43;5.85;;;5.25;;
14789;SDS011;7486;51.010;10.366;2022-09-11T08:54:24;5.85;;;5.25;;
14789;SDS011;7486;51.010;10.366;2022-09-11T08:56:53;5.55;;;5.05;;
14789;SDS011;7486;51.010;10.366;2022-09-11T09:08:35;5.32;;;4.82;;
14789;SDS011;7486;51.010;10.366;2022-09-11T09:14:32;5.82;;;5.25;;
14789;SDS011;7486;51.010;10.366;2022-09-11T09:17:04;6.22;;;5.63;;
14789;SDS011;7486;51.010;10.366;2022-09-11T09:19:57;5.95;;;5.38;;
14789;SDS011;7486;51.010;10.366;2022-09-11T09:22:37;6.60;;;6.00;;
14789;SDS011;7486;51.010;10.366;2022-09-11T09:25:12;6.47;;;5.88;;
14789;SDS011;7486;51.010;10.366;2022-09-11T09:28:02;6.53;;;5.93;;
14789;SDS011;7486;51.010;10.366;2022-09-11T09:30:50;6.97;;;6.28;;
14789;SDS011;7486;51.010;10.366;2022-09-11T09:33:28;8.82;;;6.32;;
14789;SDS011;7486;51.010;10.366;2022-09-11T09:36:24;6.40;;;5.63;;
14789;SDS011;7486;51.010;10.366;2022-09-11T09:38:57;7.30;;;6.60;;
14789;SDS011;7486;51.010;10.366;2022-09-11T09:47:15;7.32;;;6.63;;
14789;SDS011;7486;51.010;10.366;2022-09-11T09:49:42;7.35;;;6.63;;
14789;SDS011;7486;51.010;10.366;2022-09-11T09:52:20;7.72;;;7.03;;
14789;SDS011;7486;51.010;10.366;2022-09-11T09:54:52;7.57;;;6.85;;
14789;SDS011;7486;51.010;10.366;2022-09-11T09:57:23;7.63;;;6.90;;
14789;SDS011;7486;51.010;10.366;2022-09-11T09:59:55;8.70;;;7.75;;
14789;SDS011;7486;51.010;10.366;2022-09-11T10:07:48;6.22;;;5.60;;
14789;SDS011;7486;51.010;10.366;2022-09-11T10:10:36;5.90;;;5.30;;
14789;SDS011;7486;51.010;10.366;2022-09-11T10:13:23;5.93;;;5.38;;
14789;SDS011;7486;51.010;10.366;2022-09-11T10:15:54;6.43;;;5.82;;
14789;SDS011;7486;51.010;10.366;2022-09-11T10:21:29;6.53;;;5.93;;
14789;SDS011;7486;51.010;10.366;2022-09-11T10:23:58;6.53;;;5.90;;
14789;SDS011;7486;51.010;10.366;2022-09-11T10:26:27;6.50;;;5.90;;
14789;SDS011;7486;51.010;10.366;2022-09-11T10:28:57;5.93;;;5.30;;
14789;SDS011;7486;51.010;10.366;2022-09-11T10:31:30;5.40;;;4.90;;
14789;SDS011;7486;51.010;10.366;2022-09-11T10:33:57;5.10;;;4.60;;
14789;SDS011;7486;51.010;10.366;2022-09-11T10:36:26;5.28;;;4.35;;
14789;SDS011;7486;51.010;10.366;2022-09-11T10:38:55;6.03;;;4.45;;
14789;SDS011;7486;51.010;10.366;2022-09-11T10:41:24;6.90;;;4.80;;
14789;SDS011;7486;51.010;10.366;2022-09-11T10:43:53;4.93;;;4.53;;
14789;SDS011;7486;51.010;10.366;2022-09-11T10:46:34;5.28;;;4.78;;
14789;SDS011;7486;51.010;10.366;2022-09-11T10:49:08;5.38;;;4.88;;
14789;SDS011;7486;51.010;10.366;2022-09-11T10:51:42;6.32;;;5.30;;
14789;SDS011;7486;51.010;10.366;2022-09-11T10:54:29;5.15;;;4.65;;
14789;SDS011;7486;51.010;10.366;2022-09-11T11:00:05;5.35;;;4.85;;
14789;SDS011;7486;51.010;10.366;2022-09-11T11:02:47;5.75;;;5.13;;
14789;SDS011;7486;51.010;10.366;2022-09-11T11:05:21;6.38;;;4.70;;
14789;SDS011;7486;51.010;10.366;2022-09-11T11:11:10;5.75;;;5.18;;
14789;SDS011;7486;51.010;10.366;2022-09-11T11:25:20;5.40;;;4.90;;
14789;SDS011;7486;51.010;10.366;2022-09-11T11:36:57;4.90;;;4.50;;
14789;SDS011;7486;51.010;10.366;2022-09-11T11:42:19;4.57;;;4.18;;
14789;SDS011;7486;51.010;10.366;2022-09-11T11:44:51;4.72;;;3.97;;
14789;SDS011;7486;51.010;10.366;2022-09-11T11:47:22;3.97;;;3.67;;
14789;SDS011;7486;51.010;10.366;2022-09-11T11:49:57;4.35;;;3.70;;
14789;SDS011;7486;51.010;10.366;2022-09-11T11:57:40;3.25;;;2.90;;
14789;SDS011;7486;51.010;10.366;2022-09-11T12:00:13;2.75;;;2.40;;
14789;SDS011;7486;51.010;10.366;2022-09-11T12:02:44;3.15;;;2.00;;
14789;SDS011;7486;51.010;10.366;2022-09-11T12:05:21;2.53;;;2.30;;
14789;SDS011;7486;51.010;10.366;2022-09-11T12:07:50;2.60;;;2.40;;
14789;SDS011;7486;51.010;10.366;2022-09-11T12:10:39;2.88;;;2.40;;
14789;SDS011;7486;51.010;10.366;2022-09-11T12:13:10;2.80;;;2.60;;
14789;SDS011;7486;51.010;10.366;2022-09-11T12:15:56;2.83;;;2.45;;
14789;SDS011;7486;51.010;10.366;2022-09-11T12:21:39;2.50;;;2.30;;
14789;SDS011;7486;51.010;10.366;2022-09-11T12:24:11;2.38;;;2.15;;
14789;SDS011;7486;51.010;10.366;2022-09-11T12:26:39;2.45;;;2.10;;
14789;SDS011;7486;51.010;10.366;2022-09-11T12:34:17;2.17;;;1.95;;
14789;SDS011;7486;51.010;10.366;2022-09-11T12:52:31;3.67;;;2.15;;
14789;SDS011;7486;51.010;10.366;2022-09-11T12:57:58;2.33;;;2.13;;
14789;SDS011;7486;51.010;10.366;2022-09-11T13:00:35;2.33;;;2.13;;
14789;SDS011;7486;51.010;10.366;2022-09-11T13:03:06;2.60;;;2.00;;
14789;SDS011;7486;51.010;10.366;2022-09-11T13:05:42;2.20;;;2.00;;
14789;SDS011;7486;51.010;10.366;2022-09-11T13:08:18;1.80;;;1.70;;
14789;SDS011;7486;51.010;10.366;2022-09-11T13:10:47;2.30;;;2.10;;
14789;SDS011;7486;51.010;10.366;2022-09-11T13:16:23;2.00;;;1.90;;
14789;SDS011;7486;51.010;10.366;2022-09-11T13:18:47;2.05;;;1.90;;
14789;SDS011;7486;51.010;10.366;2022-09-11T13:21:15;2.20;;;2.00;;
14789;SDS011;7486;51.010;10.366;2022-09-11T13:23:46;2.20;;;2.00;;
14789;SDS011;7486;51.010;10.366;2022-09-11T13:26:21;1.77;;;1.67;;
14789;SDS011;7486;51.010;10.366;2022-09-11T13:28:49;1.90;;;1.80;;
14789;SDS011;7486;51.010;10.366;2022-09-11T13:31:20;2.15;;;2.00;;
14789;SDS011;7486;51.010;10.366;2022-09-11T13:34:14;2.10;;;1.83;;
14789;SDS011;7486;51.010;10.366;2022-09-11T13:36:42;1.95;;;1.75;;
14789;SDS011;7486;51.010;10.366;2022-09-11T13:39:09;1.90;;;1.70;;
14789;SDS011;7486;51.010;10.366;2022-09-11T13:41:41;1.80;;;1.70;;
14789;SDS011;7486;51.010;10.366;2022-09-11T13:44:09;1.88;;;1.60;;
14789;SDS011;7486;51.010;10.366;2022-09-11T13:46:49;1.60;;;1.50;;
14789;SDS011;7486;51.010;10.366;2022-09-11T13:49:31;1.83;;;1.73;;
14789;SDS011;7486;51.010;10.366;2022-09-11T13:52:02;1.70;;;1.60;;
14789;SDS011;7486;51.010;10.366;2022-09-11T13:54:32;2.03;;;1.92;;
14789;SDS011;7486;51.010;10.366;2022-09-11T13:59:35;3.10;;;2.47;;
14789;SDS011;7486;51.010;10.366;2022-09-11T14:05:17;3.72;;;2.72;;
14789;SDS011;7486;51.010;10.366;2022-09-11T14:07:55;2.90;;;2.70;;
14789;SDS011;7486;51.010;10.366;2022-09-11T14:10:32;3.53;;;3.20;;
14789;SDS011;7486;51.010;10.366;2022-09-11T14:13:04;3.35;;;2.78;;
14789;SDS011;7486;51.010;10.366;2022-09-11T14:19:04;3.50;;;2.63;;
14789;SDS011;7486;51.010;10.366;2022-09-11T14:21:25;2.85;;;2.60;;
14789;SDS011;7486;51.010;10.366;2022-09-11T14:23:58;4.63;;;2.85;;
14789;SDS011;7486;51.010;10.366;2022-09-11T14:31:46;3.10;;;2.65;;
14789;SDS011;7486;51.010;10.366;2022-09-11T14:34:15;2.88;;;2.30;;
14789;SDS011;7486;51.010;10.366;2022-09-11T14:36:43;2.60;;;2.40;;
14789;SDS011;7486;51.010;10.366;2022-09-11T14:39:14;2.42;;;2.22;;
14789;SDS011;7486;51.010;10.366;2022-09-11T14:41:48;2.60;;;2.38;;
14789;SDS011;7486;51.010;10.366;2022-09-11T14:44:16;2.50;;;2.30;;
14789;SDS011;7486;51.010;10.366;2022-09-11T14:46:43;2.88;;;2.40;;
14789;SDS011;7486;51.010;10.366;2022-09-11T14:49:09;2.50;;;2.30;;
14789;SDS011;7486;51.010;10.366;2022-09-11T14:51:36;2.45;;;2.25;;
14789;SDS011;7486;51.010;10.366;2022-09-11T14:54:04;2.60;;;2.40;;
14789;SDS011;7486;51.010;10.366;2022-09-11T14:56:31;2.60;;;2.40;;
14789;SDS011;7486;51.010;10.366;2022-09-11T14:58:57;2.15;;;1.95;;
14789;SDS011;7486;51.010;10.366;2022-09-11T15:01:25;2.30;;;2.10;;
14789;SDS011;7486;51.010;10.366;2022-09-11T15:03:51;2.58;;;2.30;;
14789;SDS011;7486;51.010;10.366;2022-09-11T15:06:19;1.90;;;1.80;;
14789;SDS011;7486;51.010;10.366;2022-09-11T15:08:46;2.10;;;1.90;;
14789;SDS011;7486;51.010;10.366;2022-09-11T15:11:13;1.90;;;1.80;;
14789;SDS011;7486;51.010;10.366;2022-09-11T15:13:40;2.33;;;2.13;;
14789;SDS011;7486;51.010;10.366;2022-09-11T15:16:26;2.40;;;2.08;;
14789;SDS011;7486;51.010;10.366;2022-09-11T15:18:53;2.30;;;2.10;;
14789;SDS011;7486;51.010;10.366;2022-09-11T15:21:20;2.33;;;2.10;;
14789;SDS011;7486;51.010;10.366;2022-09-11T15:23:46;2.38;;;2.20;;
14789;SDS011;7486;51.010;10.366;2022-09-11T15:26:13;2.42;;;2.20;;
14789;SDS011;7486;51.010;10.366;2022-09-11T15:28:40;3.35;;;2.63;;
14789;SDS011;7486;51.010;10.366;2022-09-11T15:31:06;3.53;;;2.40;;
14789;SDS011;7486;51.010;10.366;2022-09-11T15:33:33;3.97;;;2.83;;
14789;SDS011;7486;51.010;10.366;2022-09-11T15:36:01;3.10;;;2.80;;
14789;SDS011;7486;51.010;10.366;2022-09-11T15:38:29;2.60;;;2.40;;
14789;SDS011;7486;51.010;10.366;2022-09-11T15:40:57;2.80;;;2.60;;
14789;SDS011;7486;51.010;10.366;2022-09-11T15:43:24;3.15;;;2.85;;
14789;SDS011;7486;51.010;10.366;2022-09-11T15:45:58;3.72;;;3.40;;
14789;SDS011;7486;51.010;10.366;2022-09-11T15:48:25;3.75;;;3.38;;
14789;SDS011;7486;51.010;10.366;2022-09-11T15:50:58;3.40;;;3.10;;
14789;SDS011;7486;51.010;10.366;2022-09-11T15:53:27;3.90;;;3.50;;
14789;SDS011;7486;51.010;10.366;2022-09-11T15:56:04;4.78;;;3.55;;
14789;SDS011;7486;51.010;10.366;2022-09-11T15:58:33;3.25;;;2.95;;
14789;SDS011;7486;51.010;10.366;2022-09-11T16:01:01;4.28;;;3.50;;
14789;SDS011;7486;51.010;10.366;2022-09-11T16:03:29;3.60;;;3.17;;
14789;SDS011;7486;51.010;10.366;2022-09-11T16:05:56;3.92;;;3.30;;
14789;SDS011;7486;51.010;10.366;2022-09-11T16:08:23;3.80;;;3.13;;
14789;SDS011;7486;51.010;10.366;2022-09-11T16:10:50;3.78;;;3.10;;
14789;SDS011;7486;51.010;10.366;2022-09-11T16:13:17;3.10;;;2.80;;
14789;SDS011;7486;51.010;10.366;2022-09-11T16:15:44;3.60;;;3.28;;
14789;SDS011;7486;51.010;10.366;2022-09-11T16:18:12;4.03;;;3.40;;
14789;SDS011;7486;51.010;10.366;2022-09-11T16:20:39;3.20;;;2.90;;
14789;SDS011;7486;51.010;10.366;2022-09-11T16:23:06;3.58;;;3.28;;
14789;SDS011;7486;51.010;10.366;2022-09-11T16:25:36;3.55;;;3.20;;
14789;SDS011;7486;51.010;10.366;2022-09-11T16:28:06;3.60;;;3.22;;
14789;SDS011;7486;51.010;10.366;2022-09-11T16:30:40;3.85;;;3.40;;
14789;SDS011;7486;51.010;10.366;2022-09-11T16:33:11;4.65;;;3.55;;
14789;SDS011;7486;51.010;10.366;2022-09-11T16:35:38;4.32;;;3.70;;
14789;SDS011;7486;51.010;10.366;2022-09-11T16:38:05;4.40;;;3.63;;
14789;SDS011;7486;51.010;10.366;2022-09-11T16:40:33;3.72;;;3.40;;
14789;SDS011;7486;51.010;10.366;2022-09-11T16:43:01;4.10;;;3.60;;
14789;SDS011;7486;51.010;10.366;2022-09-11T16:45:28;3.83;;;3.42;;
14789;SDS011;7486;51.010;10.366;2022-09-11T16:47:55;3.92;;;3.53;;
14789;SDS011;7486;51.010;10.366;2022-09-11T16:50:24;4.20;;;3.80;;
14789;SDS011;7486;51.010;10.366;2022-09-11T16:52:51;4.72;;;3.92;;
14789;SDS011;7486;51.010;10.366;2022-09-11T16:55:18;4.20;;;3.63;;
14789;SDS011;7486;51.010;10.366;2022-09-11T16:57:45;3.88;;;3.47;;
14789;SDS011;7486;51.010;10.366;2022-09-11T17:00:11;3.78;;;3.40;;
14789;SDS011;7486;51.010;10.366;2022-09-11T17:02:39;4.00;;;3.42;;
14789;SDS011;7486;51.010;10.366;2022-09-11T17:05:06;4.07;;;3.30;;
14789;SDS011;7486;51.010;10.366;2022-09-11T17:07:34;3.83;;;3.30;;
14789;SDS011;7486;51.010;10.366;2022-09-11T17:10:01;4.15;;;3.53;;
14789;SDS011;7486;51.010;10.366;2022-09-11T17:12:28;4.38;;;3.47;;
14789;SDS011;7486;51.010;10.366;2022-09-11T17:14:55;3.97;;;3.40;;
14789;SDS011;7486;51.010;10.366;2022-09-11T17:17:21;5.28;;;3.90;;
14789;SDS011;7486;51.010;10.366;2022-09-11T17:19:48;4.75;;;3.70;;
14789;SDS011;7486;51.010;10.366;2022-09-11T17:22:15;3.58;;;3.28;;
14789;SDS011;7486;51.010;10.366;2022-09-11T17:24:42;4.22;;;3.38;;
14789;SDS011;7486;51.010;10.366;2022-09-11T17:27:09;6.13;;;3.70;;
14789;SDS011;7486;51.010;10.366;2022-09-11T17:29:35;4.32;;;3.55;;
14789;SDS011;7486;51.010;10.366;2022-09-11T17:32:07;4.72;;;3.65;;
14789;SDS011;7486;51.010;10.366;2022-09-11T17:34:53;4.20;;;3.58;;
14789;SDS011;7486;51.010;10.366;2022-09-11T17:37:20;5.75;;;3.90;;